Battle Ground, IN (47920)

2:38 PM EST on February 06, 2016 (GMT -0500)
Prophet's Ridge | | Change Station
CLOSE
Current Station
Personal Weather Station
Location: West Lafayette, IN
Elevation: 679 ft
Nearby Weather Stations

Elev 679 ft 40.48 °N, 86.89 °W | Updated 49 seconds ago

Clear
Clear
44.7 °F
Feels Like 45 °F
N
1.0
Wind Variable Wind from WSW
Gusts 2.0 mph

Today
High -- | Low -- °F
--% Chance of Precip.
Yesterday
High -- | Low -- °F
Precip. -- in
Pressure 30.27 in
Visibility 10.0 miles
Clouds Clear
Windchill 45 °F
Dew Point 30 °F
Humidity 57%
Rainfall 0.00 in
Snow Depth Not available.
7:52 AM 6:10 PM
Waning Crescent, 4% visible
METAR KLAF 061854Z 26009KT 10SM CLR 04/M04 A3025 RMK AO2 SLP249 T00441044
Pressure 30.27 in
Visibility 10.0 miles
Clouds Clear
Windchill 45 °F
Dew Point 30 °F
Humidity 57%
Rainfall 0.00 in
Snow Depth Not available.
7:52 AM 6:10 PM
Waning Crescent, 4% visible
METAR KLAF 061854Z 26009KT 10SM CLR 04/M04 A3025 RMK AO2 SLP249 T00441044

10-Day Weather Forecast

Almanac

Astronomy

Feb. 06, 2016 Rise Set
Actual Time
Civil Twilight
Nautical Twilight
Astronomical Twilight
Moon
Length of Visible Light
Length of Day
Tomorrow will be .
, % of the Moon is Illuminated

Today's Extremes

State Highs State Lows

Community

WunderPhotos

Upload Photos

1,891,037 photos uploaded!

WunderBlog® & News

Nearby

Air Quality

  Air Quality AQ Index Pollutant
Not available.

Snow Depth

Station Depth Elevation

Earthquake Activity

City Distance Mag. Time & Date
Minimum magnitude displayed is 2.5.

Coastal Water Temperatures

Place Temperature

Stations

Nearby Weather Stations

Station Location Temp. Windchill Dew Point Humidity Wind Precip. Elev Updated Type
                   

Watches & Warnings

There are currently no watches in effect.